sensor_id;sensor_type;location;lat;lon;timestamp;P1;durP1;ratioP1;P2;durP2;ratioP2
33902;SDS011;20194;50.950;5.346;2022-11-15T00:00:26;26.05;;;13.18;;
33902;SDS011;20194;50.950;5.346;2022-11-15T00:02:53;35.05;;;13.98;;
33902;SDS011;20194;50.950;5.346;2022-11-15T00:05:18;29.27;;;13.18;;
33902;SDS011;20194;50.950;5.346;2022-11-15T00:07:44;21.27;;;12.13;;
33902;SDS011;20194;50.950;5.346;2022-11-15T00:10:10;29.33;;;12.35;;
33902;SDS011;20194;50.950;5.346;2022-11-15T00:12:36;23.60;;;13.18;;
33902;SDS011;20194;50.950;5.346;2022-11-15T00:15:02;20.75;;;11.75;;
33902;SDS011;20194;50.950;5.346;2022-11-15T00:17:27;19.38;;;12.35;;
33902;SDS011;20194;50.950;5.346;2022-11-15T00:19:53;26.58;;;12.75;;
33902;SDS011;20194;50.950;5.346;2022-11-15T00:22:19;26.35;;;13.40;;
33902;SDS011;20194;50.950;5.346;2022-11-15T00:24:44;22.92;;;12.00;;
33902;SDS011;20194;50.950;5.346;2022-11-15T00:27:10;26.63;;;12.80;;
33902;SDS011;20194;50.950;5.346;2022-11-15T00:29:36;25.85;;;13.02;;
33902;SDS011;20194;50.950;5.346;2022-11-15T00:32:03;24.85;;;13.52;;
33902;SDS011;20194;50.950;5.346;2022-11-15T00:34:29;27.27;;;13.32;;
33902;SDS011;20194;50.950;5.346;2022-11-15T00:36:56;23.42;;;12.75;;
33902;SDS011;20194;50.950;5.346;2022-11-15T00:39:21;21.38;;;11.50;;
33902;SDS011;20194;50.950;5.346;2022-11-15T00:41:47;28.92;;;11.82;;
33902;SDS011;20194;50.950;5.346;2022-11-15T00:44:12;22.00;;;12.40;;
33902;SDS011;20194;50.950;5.346;2022-11-15T00:46:38;27.08;;;13.63;;
33902;SDS011;20194;50.950;5.346;2022-11-15T00:49:04;30.98;;;13.70;;
33902;SDS011;20194;50.950;5.346;2022-11-15T00:51:29;19.15;;;12.05;;
33902;SDS011;20194;50.950;5.346;2022-11-15T00:53:55;22.85;;;12.82;;
33902;SDS011;20194;50.950;5.346;2022-11-15T00:56:21;25.98;;;13.48;;
33902;SDS011;20194;50.950;5.346;2022-11-15T00:58:46;26.05;;;13.48;;
33902;SDS011;20194;50.950;5.346;2022-11-15T01:01:13;19.58;;;11.80;;
33902;SDS011;20194;50.950;5.346;2022-11-15T01:03:39;25.92;;;12.85;;
33902;SDS011;20194;50.950;5.346;2022-11-15T01:06:06;20.08;;;12.45;;
33902;SDS011;20194;50.950;5.346;2022-11-15T01:08:32;27.98;;;12.10;;
33902;SDS011;20194;50.950;5.346;2022-11-15T01:11:02;24.45;;;12.63;;
33902;SDS011;20194;50.950;5.346;2022-11-15T01:13:30;19.00;;;11.48;;
33902;SDS011;20194;50.950;5.346;2022-11-15T01:15:57;21.75;;;13.00;;
33902;SDS011;20194;50.950;5.346;2022-11-15T01:18:23;21.80;;;11.98;;
33902;SDS011;20194;50.950;5.346;2022-11-15T01:20:49;28.77;;;13.15;;
33902;SDS011;20194;50.950;5.346;2022-11-15T01:23:14;25.15;;;12.77;;
33902;SDS011;20194;50.950;5.346;2022-11-15T01:25:41;20.60;;;12.20;;
33902;SDS011;20194;50.950;5.346;2022-11-15T01:28:06;22.70;;;12.70;;
33902;SDS011;20194;50.950;5.346;2022-11-15T01:30:33;23.20;;;11.23;;
33902;SDS011;20194;50.950;5.346;2022-11-15T01:32:58;22.30;;;11.32;;
33902;SDS011;20194;50.950;5.346;2022-11-15T01:35:24;19.70;;;12.23;;
33902;SDS011;20194;50.950;5.346;2022-11-15T01:37:50;23.42;;;12.73;;
33902;SDS011;20194;50.950;5.346;2022-11-15T01:40:15;22.77;;;12.48;;
33902;SDS011;20194;50.950;5.346;2022-11-15T01:42:41;26.58;;;12.93;;
33902;SDS011;20194;50.950;5.346;2022-11-15T01:45:10;23.85;;;12.40;;
33902;SDS011;20194;50.950;5.346;2022-11-15T01:47:40;25.95;;;12.10;;
33902;SDS011;20194;50.950;5.346;2022-11-15T01:50:12;18.70;;;11.52;;
33902;SDS011;20194;50.950;5.346;2022-11-15T01:52:40;25.13;;;13.25;;
33902;SDS011;20194;50.950;5.346;2022-11-15T01:57:37;24.73;;;12.50;;
33902;SDS011;20194;50.950;5.346;2022-11-15T02:00:05;24.60;;;12.93;;
33902;SDS011;20194;50.950;5.346;2022-11-15T02:02:32;23.05;;;12.15;;
33902;SDS011;20194;50.950;5.346;2022-11-15T02:04:59;23.92;;;12.15;;
33902;SDS011;20194;50.950;5.346;2022-11-15T02:07:25;22.77;;;11.85;;
33902;SDS011;20194;50.950;5.346;2022-11-15T02:09:52;26.02;;;12.10;;
33902;SDS011;20194;50.950;5.346;2022-11-15T02:12:19;23.25;;;12.68;;
33902;SDS011;20194;50.950;5.346;2022-11-15T02:14:48;16.52;;;10.60;;
33902;SDS011;20194;50.950;5.346;2022-11-15T02:17:23;20.63;;;12.77;;
33902;SDS011;20194;50.950;5.346;2022-11-15T02:25:39;19.40;;;11.52;;
33902;SDS011;20194;50.950;5.346;2022-11-15T02:36:06;20.38;;;10.48;;
33902;SDS011;20194;50.950;5.346;2022-11-15T02:38:47;25.73;;;11.82;;
33902;SDS011;20194;50.950;5.346;2022-11-15T02:41:24;23.20;;;11.25;;
33902;SDS011;20194;50.950;5.346;2022-11-15T02:44:12;27.65;;;11.52;;
33902;SDS011;20194;50.950;5.346;2022-11-15T02:46:46;18.38;;;11.13;;
33902;SDS011;20194;50.950;5.346;2022-11-15T02:49:33;20.70;;;10.80;;
33902;SDS011;20194;50.950;5.346;2022-11-15T02:52:01;21.42;;;11.50;;
33902;SDS011;20194;50.950;5.346;2022-11-15T02:54:31;18.52;;;10.45;;
33902;SDS011;20194;50.950;5.346;2022-11-15T02:57:06;19.58;;;10.10;;
33902;SDS011;20194;50.950;5.346;2022-11-15T03:15:05;12.70;;;9.43;;
33902;SDS011;20194;50.950;5.346;2022-11-15T03:17:38;19.00;;;10.60;;
33902;SDS011;20194;50.950;5.346;2022-11-15T03:20:11;17.17;;;10.18;;
33902;SDS011;20194;50.950;5.346;2022-11-15T03:22:40;18.70;;;9.77;;
33902;SDS011;20194;50.950;5.346;2022-11-15T03:25:08;22.08;;;10.60;;
33902;SDS011;20194;50.950;5.346;2022-11-15T03:27:43;15.00;;;10.25;;
33902;SDS011;20194;50.950;5.346;2022-11-15T03:30:13;19.35;;;10.55;;
33902;SDS011;20194;50.950;5.346;2022-11-15T03:32:53;15.38;;;9.82;;
33902;SDS011;20194;50.950;5.346;2022-11-15T03:35:21;14.88;;;10.30;;
33902;SDS011;20194;50.950;5.346;2022-11-15T03:38:05;16.10;;;9.68;;
33902;SDS011;20194;50.950;5.346;2022-11-15T03:46:16;15.15;;;9.32;;
33902;SDS011;20194;50.950;5.346;2022-11-15T03:48:49;15.85;;;9.32;;
33902;SDS011;20194;50.950;5.346;2022-11-15T03:51:18;16.00;;;9.25;;
33902;SDS011;20194;50.950;5.346;2022-11-15T03:53:45;18.30;;;10.00;;
33902;SDS011;20194;50.950;5.346;2022-11-15T03:56:11;15.57;;;9.25;;
33902;SDS011;20194;50.950;5.346;2022-11-15T03:58:37;15.35;;;9.32;;
33902;SDS011;20194;50.950;5.346;2022-11-15T04:01:02;15.77;;;9.73;;
33902;SDS011;20194;50.950;5.346;2022-11-15T04:03:28;15.00;;;8.95;;
33902;SDS011;20194;50.950;5.346;2022-11-15T04:05:54;17.55;;;9.93;;
33902;SDS011;20194;50.950;5.346;2022-11-15T04:08:19;14.57;;;9.40;;
33902;SDS011;20194;50.950;5.346;2022-11-15T04:10:48;17.10;;;8.88;;
33902;SDS011;20194;50.950;5.346;2022-11-15T04:13:14;18.00;;;9.45;;
33902;SDS011;20194;50.950;5.346;2022-11-15T04:15:39;12.90;;;8.15;;
33902;SDS011;20194;50.950;5.346;2022-11-15T04:18:05;16.15;;;9.43;;
33902;SDS011;20194;50.950;5.346;2022-11-15T04:20:31;14.85;;;9.02;;
33902;SDS011;20194;50.950;5.346;2022-11-15T04:23:19;15.93;;;9.05;;
33902;SDS011;20194;50.950;5.346;2022-11-15T04:26:06;15.20;;;9.38;;
33902;SDS011;20194;50.950;5.346;2022-11-15T04:28:35;17.15;;;8.57;;
33902;SDS011;20194;50.950;5.346;2022-11-15T04:31:21;14.32;;;8.02;;
33902;SDS011;20194;50.950;5.346;2022-11-15T04:33:47;12.82;;;8.63;;
33902;SDS011;20194;50.950;5.346;2022-11-15T04:36:12;16.27;;;8.88;;
33902;SDS011;20194;50.950;5.346;2022-11-15T04:41:22;15.07;;;8.52;;
33902;SDS011;20194;50.950;5.346;2022-11-15T04:43:48;17.88;;;9.23;;
33902;SDS011;20194;50.950;5.346;2022-11-15T04:46:14;16.17;;;8.13;;
33902;SDS011;20194;50.950;5.346;2022-11-15T04:48:39;12.60;;;8.35;;
33902;SDS011;20194;50.950;5.346;2022-11-15T04:51:06;13.43;;;8.57;;
33902;SDS011;20194;50.950;5.346;2022-11-15T04:53:31;14.32;;;8.40;;
33902;SDS011;20194;50.950;5.346;2022-11-15T04:55:57;20.95;;;8.98;;
33902;SDS011;20194;50.950;5.346;2022-11-15T04:58:22;12.68;;;8.43;;
33902;SDS011;20194;50.950;5.346;2022-11-15T05:00:48;9.13;;;4.97;;
33902;SDS011;20194;50.950;5.346;2022-11-15T05:03:14;7.38;;;3.42;;
33902;SDS011;20194;50.950;5.346;2022-11-15T05:08:24;11.10;;;3.00;;
33902;SDS011;20194;50.950;5.346;2022-11-15T05:10:50;7.18;;;3.15;;
33902;SDS011;20194;50.950;5.346;2022-11-15T05:13:16;4.95;;;3.30;;
33902;SDS011;20194;50.950;5.346;2022-11-15T05:15:42;5.78;;;2.65;;
33902;SDS011;20194;50.950;5.346;2022-11-15T05:18:08;8.23;;;2.70;;
33902;SDS011;20194;50.950;5.346;2022-11-15T05:20:33;5.97;;;2.67;;
33902;SDS011;20194;50.950;5.346;2022-11-15T05:22:59;3.70;;;2.50;;
33902;SDS011;20194;50.950;5.346;2022-11-15T05:25:25;5.03;;;2.78;;
33902;SDS011;20194;50.950;5.346;2022-11-15T05:27:51;5.20;;;2.33;;
33902;SDS011;20194;50.950;5.346;2022-11-15T05:30:17;2.97;;;2.22;;
33902;SDS011;20194;50.950;5.346;2022-11-15T05:32:43;5.63;;;2.63;;
33902;SDS011;20194;50.950;5.346;2022-11-15T05:35:11;7.28;;;2.50;;
33902;SDS011;20194;50.950;5.346;2022-11-15T05:37:42;8.93;;;2.93;;
33902;SDS011;20194;50.950;5.346;2022-11-15T05:40:08;7.70;;;2.75;;
33902;SDS011;20194;50.950;5.346;2022-11-15T05:42:34;5.78;;;3.13;;
33902;SDS011;20194;50.950;5.346;2022-11-15T05:45:00;7.32;;;2.95;;
33902;SDS011;20194;50.950;5.346;2022-11-15T05:47:28;7.35;;;3.70;;
33902;SDS011;20194;50.950;5.346;2022-11-15T05:49:55;8.23;;;3.45;;
33902;SDS011;20194;50.950;5.346;2022-11-15T05:52:22;5.40;;;3.22;;
33902;SDS011;20194;50.950;5.346;2022-11-15T05:54:50;6.88;;;4.20;;
33902;SDS011;20194;50.950;5.346;2022-11-15T05:57:17;9.98;;;5.07;;
33902;SDS011;20194;50.950;5.346;2022-11-15T05:59:43;10.15;;;4.75;;
33902;SDS011;20194;50.950;5.346;2022-11-15T06:02:10;8.90;;;5.05;;
33902;SDS011;20194;50.950;5.346;2022-11-15T06:04:35;14.00;;;4.88;;
33902;SDS011;20194;50.950;5.346;2022-11-15T06:07:01;11.75;;;5.20;;
33902;SDS011;20194;50.950;5.346;2022-11-15T06:09:28;8.80;;;4.97;;
33902;SDS011;20194;50.950;5.346;2022-11-15T06:11:53;8.38;;;4.65;;
33902;SDS011;20194;50.950;5.346;2022-11-15T06:14:19;7.30;;;4.65;;
33902;SDS011;20194;50.950;5.346;2022-11-15T06:16:45;11.55;;;4.70;;
33902;SDS011;20194;50.950;5.346;2022-11-15T06:19:10;9.88;;;4.90;;
33902;SDS011;20194;50.950;5.346;2022-11-15T06:21:36;12.20;;;4.93;;
33902;SDS011;20194;50.950;5.346;2022-11-15T06:24:02;9.25;;;5.25;;
33902;SDS011;20194;50.950;5.346;2022-11-15T06:26:27;11.63;;;4.93;;
33902;SDS011;20194;50.950;5.346;2022-11-15T06:28:53;8.80;;;4.80;;
33902;SDS011;20194;50.950;5.346;2022-11-15T06:31:19;12.38;;;5.00;;
33902;SDS011;20194;50.950;5.346;2022-11-15T06:33:46;9.65;;;4.95;;
33902;SDS011;20194;50.950;5.346;2022-11-15T06:36:12;9.73;;;5.90;;
33902;SDS011;20194;50.950;5.346;2022-11-15T06:38:42;9.77;;;4.55;;
33902;SDS011;20194;50.950;5.346;2022-11-15T06:41:09;13.65;;;4.93;;
33902;SDS011;20194;50.950;5.346;2022-11-15T06:43:36;11.25;;;4.85;;
33902;SDS011;20194;50.950;5.346;2022-11-15T06:46:02;7.70;;;4.53;;
33902;SDS011;20194;50.950;5.346;2022-11-15T06:48:30;7.80;;;4.70;;
33902;SDS011;20194;50.950;5.346;2022-11-15T06:50:58;6.43;;;4.15;;
33902;SDS011;20194;50.950;5.346;2022-11-15T06:53:25;6.80;;;3.90;;
33902;SDS011;20194;50.950;5.346;2022-11-15T06:55:51;5.07;;;3.55;;
33902;SDS011;20194;50.950;5.346;2022-11-15T06:58:17;5.60;;;3.60;;
33902;SDS011;20194;50.950;5.346;2022-11-15T07:00:43;4.32;;;3.20;;
33902;SDS011;20194;50.950;5.346;2022-11-15T07:03:09;5.43;;;3.28;;
33902;SDS011;20194;50.950;5.346;2022-11-15T07:05:35;9.55;;;3.88;;
33902;SDS011;20194;50.950;5.346;2022-11-15T07:08:01;8.27;;;3.63;;
33902;SDS011;20194;50.950;5.346;2022-11-15T07:10:27;7.72;;;3.10;;
33902;SDS011;20194;50.950;5.346;2022-11-15T07:12:54;5.88;;;3.20;;
33902;SDS011;20194;50.950;5.346;2022-11-15T07:15:21;8.82;;;4.10;;
33902;SDS011;20194;50.950;5.346;2022-11-15T07:17:49;8.23;;;3.95;;
33902;SDS011;20194;50.950;5.346;2022-11-15T07:20:15;8.00;;;4.05;;
33902;SDS011;20194;50.950;5.346;2022-11-15T07:22:41;5.82;;;3.78;;
33902;SDS011;20194;50.950;5.346;2022-11-15T07:25:08;8.55;;;3.80;;
33902;SDS011;20194;50.950;5.346;2022-11-15T07:27:34;9.32;;;4.80;;
33902;SDS011;20194;50.950;5.346;2022-11-15T07:30:00;10.82;;;4.50;;
33902;SDS011;20194;50.950;5.346;2022-11-15T07:32:26;7.85;;;3.78;;
33902;SDS011;20194;50.950;5.346;2022-11-15T07:34:52;9.35;;;4.57;;
33902;SDS011;20194;50.950;5.346;2022-11-15T07:37:18;7.68;;;3.85;;
33902;SDS011;20194;50.950;5.346;2022-11-15T07:39:44;6.47;;;4.00;;
33902;SDS011;20194;50.950;5.346;2022-11-15T07:42:09;7.18;;;3.88;;
33902;SDS011;20194;50.950;5.346;2022-11-15T07:44:54;6.30;;;3.78;;
33902;SDS011;20194;50.950;5.346;2022-11-15T07:47:20;5.35;;;3.50;;
33902;SDS011;20194;50.950;5.346;2022-11-15T07:49:46;8.02;;;3.75;;
33902;SDS011;20194;50.950;5.346;2022-11-15T07:52:12;8.57;;;4.22;;
33902;SDS011;20194;50.950;5.346;2022-11-15T07:54:38;11.88;;;4.28;;
33902;SDS011;20194;50.950;5.346;2022-11-15T07:57:05;8.63;;;4.60;;
33902;SDS011;20194;50.950;5.346;2022-11-15T07:59:32;7.75;;;4.10;;
33902;SDS011;20194;50.950;5.346;2022-11-15T08:01:59;5.57;;;3.42;;
33902;SDS011;20194;50.950;5.346;2022-11-15T08:04:25;9.40;;;3.63;;
33902;SDS011;20194;50.950;5.346;2022-11-15T08:06:51;10.98;;;3.92;;
33902;SDS011;20194;50.950;5.346;2022-11-15T08:09:17;7.68;;;3.88;;
33902;SDS011;20194;50.950;5.346;2022-11-15T08:11:43;5.70;;;3.40;;
33902;SDS011;20194;50.950;5.346;2022-11-15T08:14:08;7.30;;;3.17;;
33902;SDS011;20194;50.950;5.346;2022-11-15T08:16:34;5.88;;;3.55;;
33902;SDS011;20194;50.950;5.346;2022-11-15T08:18:59;6.88;;;2.90;;
33902;SDS011;20194;50.950;5.346;2022-11-15T08:21:25;5.82;;;3.15;;
33902;SDS011;20194;50.950;5.346;2022-11-15T08:23:51;7.15;;;2.90;;
33902;SDS011;20194;50.950;5.346;2022-11-15T08:26:17;5.68;;;2.40;;
33902;SDS011;20194;50.950;5.346;2022-11-15T08:28:42;7.25;;;2.42;;
33902;SDS011;20194;50.950;5.346;2022-11-15T08:31:15;6.53;;;2.30;;
33902;SDS011;20194;50.950;5.346;2022-11-15T08:33:42;5.75;;;2.08;;
33902;SDS011;20194;50.950;5.346;2022-11-15T08:36:11;4.35;;;2.00;;
33902;SDS011;20194;50.950;5.346;2022-11-15T08:38:40;4.28;;;2.28;;
33902;SDS011;20194;50.950;5.346;2022-11-15T08:41:06;2.83;;;2.00;;
33902;SDS011;20194;50.950;5.346;2022-11-15T08:43:35;5.22;;;2.10;;
33902;SDS011;20194;50.950;5.346;2022-11-15T08:46:00;5.00;;;1.65;;
33902;SDS011;20194;50.950;5.346;2022-11-15T08:48:26;7.00;;;1.90;;
33902;SDS011;20194;50.950;5.346;2022-11-15T08:50:56;3.72;;;1.80;;
33902;SDS011;20194;50.950;5.346;2022-11-15T08:53:22;6.35;;;1.88;;
33902;SDS011;20194;50.950;5.346;2022-11-15T08:55:47;4.97;;;1.58;;
33902;SDS011;20194;50.950;5.346;2022-11-15T08:58:13;7.28;;;1.67;;
33902;SDS011;20194;50.950;5.346;2022-11-15T09:00:38;3.75;;;1.50;;
33902;SDS011;20194;50.950;5.346;2022-11-15T09:03:05;6.10;;;1.52;;
33902;SDS011;20194;50.950;5.346;2022-11-15T09:05:31;2.78;;;1.10;;
33902;SDS011;20194;50.950;5.346;2022-11-15T09:07:57;2.33;;;1.60;;
33902;SDS011;20194;50.950;5.346;2022-11-15T09:10:23;6.55;;;2.65;;
33902;SDS011;20194;50.950;5.346;2022-11-15T09:12:49;6.47;;;1.30;;
33902;SDS011;20194;50.950;5.346;2022-11-15T09:15:15;4.45;;;1.20;;
33902;SDS011;20194;50.950;5.346;2022-11-15T09:17:41;4.50;;;1.40;;
33902;SDS011;20194;50.950;5.346;2022-11-15T09:20:07;7.35;;;1.75;;
33902;SDS011;20194;50.950;5.346;2022-11-15T09:22:34;10.00;;;1.67;;
33902;SDS011;20194;50.950;5.346;2022-11-15T09:25:01;4.93;;;1.70;;
33902;SDS011;20194;50.950;5.346;2022-11-15T09:27:30;7.50;;;2.28;;
33902;SDS011;20194;50.950;5.346;2022-11-15T09:29:56;5.63;;;1.77;;
33902;SDS011;20194;50.950;5.346;2022-11-15T09:32:21;7.50;;;2.00;;
33902;SDS011;20194;50.950;5.346;2022-11-15T09:34:48;8.75;;;1.50;;
33902;SDS011;20194;50.950;5.346;2022-11-15T09:37:14;4.72;;;1.40;;
33902;SDS011;20194;50.950;5.346;2022-11-15T09:39:40;14.10;;;1.75;;
33902;SDS011;20194;50.950;5.346;2022-11-15T09:42:12;3.80;;;1.30;;
33902;SDS011;20194;50.950;5.346;2022-11-15T09:50:50;5.40;;;1.50;;
33902;SDS011;20194;50.950;5.346;2022-11-15T09:58:50;6.65;;;1.70;;
33902;SDS011;20194;50.950;5.346;2022-11-15T10:01:41;11.25;;;1.70;;
33902;SDS011;20194;50.950;5.346;2022-11-15T10:04:13;6.88;;;1.40;;
33902;SDS011;20194;50.950;5.346;2022-11-15T10:06:42;8.70;;;1.60;;
33902;SDS011;20194;50.950;5.346;2022-11-15T10:09:16;4.97;;;1.30;;
33902;SDS011;20194;50.950;5.346;2022-11-15T10:11:47;17.33;;;2.55;;
33902;SDS011;20194;50.950;5.346;2022-11-15T10:14:20;2.72;;;1.10;;
33902;SDS011;20194;50.950;5.346;2022-11-15T10:27:34;7.07;;;1.45;;
33902;SDS011;20194;50.950;5.346;2022-11-15T10:30:00;5.40;;;1.08;;
33902;SDS011;20194;50.950;5.346;2022-11-15T10:32:26;7.47;;;1.35;;
33902;SDS011;20194;50.950;5.346;2022-11-15T10:34:52;8.57;;;1.52;;
33902;SDS011;20194;50.950;5.346;2022-11-15T10:37:27;7.88;;;1.42;;
33902;SDS011;20194;50.950;5.346;2022-11-15T10:40:15;6.45;;;1.30;;
33902;SDS011;20194;50.950;5.346;2022-11-15T10:42:40;3.15;;;0.98;;
33902;SDS011;20194;50.950;5.346;2022-11-15T10:45:22;8.43;;;1.52;;
33902;SDS011;20194;50.950;5.346;2022-11-15T10:56:12;4.68;;;1.10;;
33902;SDS011;20194;50.950;5.346;2022-11-15T10:58:44;10.52;;;1.50;;
33902;SDS011;20194;50.950;5.346;2022-11-15T11:01:19;4.50;;;1.17;;
33902;SDS011;20194;50.950;5.346;2022-11-15T11:04:04;6.93;;;1.30;;
33902;SDS011;20194;50.950;5.346;2022-11-15T11:06:45;3.60;;;1.25;;
33902;SDS011;20194;50.950;5.346;2022-11-15T11:09:23;3.00;;;0.85;;
33902;SDS011;20194;50.950;5.346;2022-11-15T11:12:18;6.78;;;1.15;;
33902;SDS011;20194;50.950;5.346;2022-11-15T11:14:57;6.32;;;1.10;;
33902;SDS011;20194;50.950;5.346;2022-11-15T11:17:29;6.60;;;1.13;;
33902;SDS011;20194;50.950;5.346;2022-11-15T11:31:03;3.03;;;0.95;;
33902;SDS011;20194;50.950;5.346;2022-11-15T11:33:37;5.03;;;1.13;;
33902;SDS011;20194;50.950;5.346;2022-11-15T11:38:56;4.55;;;0.82;;
33902;SDS011;20194;50.950;5.346;2022-11-15T11:46:56;3.63;;;1.08;;
33902;SDS011;20194;50.950;5.346;2022-11-15T11:49:36;3.50;;;1.13;;
33902;SDS011;20194;50.950;5.346;2022-11-15T11:54:36;6.97;;;1.00;;
33902;SDS011;20194;50.950;5.346;2022-11-15T12:00:12;5.65;;;1.10;;
33902;SDS011;20194;50.950;5.346;2022-11-15T12:05:28;7.35;;;1.08;;
33902;SDS011;20194;50.950;5.346;2022-11-15T12:07:59;7.38;;;1.40;;
33902;SDS011;20194;50.950;5.346;2022-11-15T12:10:30;5.43;;;0.90;;
33902;SDS011;20194;50.950;5.346;2022-11-15T12:13:13;3.38;;;0.98;;
33902;SDS011;20194;50.950;5.346;2022-11-15T12:15:45;5.60;;;0.93;;
33902;SDS011;20194;50.950;5.346;2022-11-15T12:18:21;8.05;;;1.33;;
33902;SDS011;20194;50.950;5.346;2022-11-15T12:23:53;7.60;;;1.20;;
33902;SDS011;20194;50.950;5.346;2022-11-15T12:26:26;9.02;;;0.90;;
33902;SDS011;20194;50.950;5.346;2022-11-15T12:28:59;4.85;;;1.20;;
33902;SDS011;20194;50.950;5.346;2022-11-15T12:34:05;5.13;;;1.08;;
33902;SDS011;20194;50.950;5.346;2022-11-15T12:36:42;6.40;;;1.27;;
33902;SDS011;20194;50.950;5.346;2022-11-15T12:39:09;4.72;;;1.40;;
33902;SDS011;20194;50.950;5.346;2022-11-15T12:41:37;5.80;;;1.63;;
33902;SDS011;20194;50.950;5.346;2022-11-15T12:44:05;4.57;;;0.95;;
33902;SDS011;20194;50.950;5.346;2022-11-15T12:47:00;9.68;;;1.20;;
33902;SDS011;20194;50.950;5.346;2022-11-15T12:49:47;2.25;;;0.98;;
33902;SDS011;20194;50.950;5.346;2022-11-15T12:52:13;7.45;;;1.05;;
33902;SDS011;20194;50.950;5.346;2022-11-15T12:59:51;2.47;;;1.10;;
33902;SDS011;20194;50.950;5.346;2022-11-15T13:04:52;7.30;;;1.20;;
33902;SDS011;20194;50.950;5.346;2022-11-15T13:17:44;5.55;;;1.20;;
33902;SDS011;20194;50.950;5.346;2022-11-15T13:22:43;5.22;;;1.17;;
33902;SDS011;20194;50.950;5.346;2022-11-15T13:28:02;6.78;;;1.25;;
33902;SDS011;20194;50.950;5.346;2022-11-15T13:30:49;4.57;;;1.45;;
33902;SDS011;20194;50.950;5.346;2022-11-15T13:33:19;7.13;;;1.45;;
33902;SDS011;20194;50.950;5.346;2022-11-15T13:35:46;9.38;;;1.20;;
33902;SDS011;20194;50.950;5.346;2022-11-15T13:38:27;5.72;;;1.13;;
33902;SDS011;20194;50.950;5.346;2022-11-15T13:40:55;6.00;;;1.05;;
33902;SDS011;20194;50.950;5.346;2022-11-15T13:46:40;5.80;;;0.95;;
33902;SDS011;20194;50.950;5.346;2022-11-15T13:48:41;4.07;;;1.52;;
33902;SDS011;20194;50.950;5.346;2022-11-15T13:51:12;3.40;;;1.40;;
33902;SDS011;20194;50.950;5.346;2022-11-15T13:53:59;4.78;;;1.35;;
33902;SDS011;20194;50.950;5.346;2022-11-15T13:56:31;7.55;;;1.38;;
33902;SDS011;20194;50.950;5.346;2022-11-15T13:58:59;4.05;;;1.60;;
33902;SDS011;20194;50.950;5.346;2022-11-15T14:01:27;2.22;;;1.00;;
33902;SDS011;20194;50.950;5.346;2022-11-15T14:03:56;4.50;;;1.13;;
33902;SDS011;20194;50.950;5.346;2022-11-15T14:06:24;3.90;;;1.20;;
33902;SDS011;20194;50.950;5.346;2022-11-15T14:11:37;4.32;;;1.20;;
33902;SDS011;20194;50.950;5.346;2022-11-15T14:14:14;6.28;;;1.20;;
33902;SDS011;20194;50.950;5.346;2022-11-15T14:16:47;3.45;;;1.33;;
33902;SDS011;20194;50.950;5.346;2022-11-15T14:24:46;3.80;;;1.20;;
33902;SDS011;20194;50.950;5.346;2022-11-15T14:27:33;3.83;;;1.45;;
33902;SDS011;20194;50.950;5.346;2022-11-15T14:29:59;3.45;;;1.70;;
33902;SDS011;20194;50.950;5.346;2022-11-15T14:32:28;5.03;;;1.23;;
33902;SDS011;20194;50.950;5.346;2022-11-15T14:35:16;6.13;;;1.52;;
33902;SDS011;20194;50.950;5.346;2022-11-15T14:37:44;4.07;;;1.40;;
33902;SDS011;20194;50.950;5.346;2022-11-15T14:40:12;3.60;;;1.45;;
33902;SDS011;20194;50.950;5.346;2022-11-15T14:42:40;4.28;;;1.30;;
33902;SDS011;20194;50.950;5.346;2022-11-15T14:45:11;2.35;;;1.15;;
33902;SDS011;20194;50.950;5.346;2022-11-15T14:47:39;3.83;;;1.77;;
33902;SDS011;20194;50.950;5.346;2022-11-15T14:50:05;3.75;;;1.45;;
33902;SDS011;20194;50.950;5.346;2022-11-15T14:52:32;3.25;;;1.67;;
33902;SDS011;20194;50.950;5.346;2022-11-15T14:55:00;4.82;;;1.38;;
33902;SDS011;20194;50.950;5.346;2022-11-15T14:57:27;3.63;;;1.70;;
33902;SDS011;20194;50.950;5.346;2022-11-15T14:59:54;2.38;;;1.73;;
33902;SDS011;20194;50.950;5.346;2022-11-15T15:02:21;4.88;;;2.33;;
33902;SDS011;20194;50.950;5.346;2022-11-15T15:04:52;6.25;;;1.95;;
33902;SDS011;20194;50.950;5.346;2022-11-15T15:07:18;5.75;;;1.50;;
33902;SDS011;20194;50.950;5.346;2022-11-15T15:09:44;5.70;;;1.33;;
33902;SDS011;20194;50.950;5.346;2022-11-15T15:12:17;2.78;;;1.13;;
33902;SDS011;20194;50.950;5.346;2022-11-15T15:14:47;1.70;;;1.30;;
33902;SDS011;20194;50.950;5.346;2022-11-15T15:17:14;3.70;;;1.65;;
33902;SDS011;20194;50.950;5.346;2022-11-15T15:19:41;3.42;;;1.98;;
33902;SDS011;20194;50.950;5.346;2022-11-15T15:22:11;2.80;;;1.55;;
33902;SDS011;20194;50.950;5.346;2022-11-15T15:24:40;2.30;;;1.50;;
33902;SDS011;20194;50.950;5.346;2022-11-15T15:27:06;5.45;;;1.60;;
33902;SDS011;20194;50.950;5.346;2022-11-15T15:29:32;4.28;;;1.67;;
33902;SDS011;20194;50.950;5.346;2022-11-15T15:31:58;13.57;;;2.15;;
33902;SDS011;20194;50.950;5.346;2022-11-15T15:34:23;4.85;;;1.45;;
33902;SDS011;20194;50.950;5.346;2022-11-15T15:36:49;4.60;;;1.67;;
33902;SDS011;20194;50.950;5.346;2022-11-15T15:39:31;5.65;;;2.58;;
33902;SDS011;20194;50.950;5.346;2022-11-15T15:41:56;3.30;;;1.73;;
33902;SDS011;20194;50.950;5.346;2022-11-15T15:44:22;7.18;;;1.50;;
33902;SDS011;20194;50.950;5.346;2022-11-15T15:46:47;3.92;;;1.70;;
33902;SDS011;20194;50.950;5.346;2022-11-15T15:49:13;3.47;;;2.42;;
33902;SDS011;20194;50.950;5.346;2022-11-15T15:51:39;2.80;;;1.90;;
33902;SDS011;20194;50.950;5.346;2022-11-15T15:54:04;5.93;;;2.22;;
33902;SDS011;20194;50.950;5.346;2022-11-15T15:56:30;3.60;;;2.13;;
33902;SDS011;20194;50.950;5.346;2022-11-15T15:58:56;5.40;;;2.65;;
33902;SDS011;20194;50.950;5.346;2022-11-15T16:01:22;5.20;;;2.35;;
33902;SDS011;20194;50.950;5.346;2022-11-15T16:03:48;4.20;;;1.90;;
33902;SDS011;20194;50.950;5.346;2022-11-15T16:06:32;6.57;;;2.10;;
33902;SDS011;20194;50.950;5.346;2022-11-15T16:08:59;6.32;;;2.42;;
33902;SDS011;20194;50.950;5.346;2022-11-15T16:11:25;5.65;;;2.20;;
33902;SDS011;20194;50.950;5.346;2022-11-15T16:13:51;5.88;;;2.67;;
33902;SDS011;20194;50.950;5.346;2022-11-15T16:16:16;5.43;;;2.53;;
33902;SDS011;20194;50.950;5.346;2022-11-15T16:18:43;8.68;;;2.28;;
33902;SDS011;20194;50.950;5.346;2022-11-15T16:21:08;4.65;;;3.08;;
33902;SDS011;20194;50.950;5.346;2022-11-15T16:23:34;7.70;;;2.88;;
33902;SDS011;20194;50.950;5.346;2022-11-15T16:25:59;6.22;;;3.35;;
33902;SDS011;20194;50.950;5.346;2022-11-15T16:28:29;6.03;;;3.28;;
33902;SDS011;20194;50.950;5.346;2022-11-15T16:31:04;6.28;;;3.03;;
33902;SDS011;20194;50.950;5.346;2022-11-15T16:33:30;4.22;;;3.00;;
33902;SDS011;20194;50.950;5.346;2022-11-15T16:35:56;7.60;;;4.43;;
33902;SDS011;20194;50.950;5.346;2022-11-15T16:38:22;11.43;;;4.38;;
33902;SDS011;20194;50.950;5.346;2022-11-15T16:40:48;5.57;;;3.60;;
33902;SDS011;20194;50.950;5.346;2022-11-15T16:43:13;7.82;;;3.95;;
33902;SDS011;20194;50.950;5.346;2022-11-15T16:45:39;10.32;;;3.47;;
33902;SDS011;20194;50.950;5.346;2022-11-15T16:48:05;5.90;;;3.60;;
33902;SDS011;20194;50.950;5.346;2022-11-15T16:50:33;7.95;;;3.85;;
33902;SDS011;20194;50.950;5.346;2022-11-15T16:53:05;7.18;;;3.92;;
33902;SDS011;20194;50.950;5.346;2022-11-15T16:55:31;10.55;;;4.15;;
33902;SDS011;20194;50.950;5.346;2022-11-15T16:57:56;7.18;;;4.97;;
33902;SDS011;20194;50.950;5.346;2022-11-15T17:00:22;8.70;;;4.53;;
33902;SDS011;20194;50.950;5.346;2022-11-15T17:02:49;9.07;;;4.90;;
33902;SDS011;20194;50.950;5.346;2022-11-15T17:05:16;7.63;;;4.38;;
33902;SDS011;20194;50.950;5.346;2022-11-15T17:07:45;10.55;;;4.63;;
33902;SDS011;20194;50.950;5.346;2022-11-15T17:10:18;7.00;;;3.88;;